createdAt,value
2019-05-20T00:02:23.187Z,99.90
2019-05-20T00:04:38.540Z,99.90
2019-05-20T00:07:05.331Z,99.90
2019-05-20T00:09:32.114Z,99.90
2019-05-20T00:12:01.035Z,99.90
2019-05-20T00:14:27.794Z,99.90
2019-05-20T00:16:54.382Z,99.90
2019-05-20T00:19:23.076Z,99.90
2019-05-20T00:21:49.725Z,99.90
2019-05-20T00:24:16.311Z,99.90
2019-05-20T00:26:45.448Z,99.90
2019-05-20T00:29:12.378Z,99.90
2019-05-20T00:31:39.246Z,99.90
2019-05-20T00:34:08.458Z,99.90
2019-05-20T00:36:35.049Z,99.90
2019-05-20T00:39:01.632Z,99.90
2019-05-20T00:41:30.342Z,99.90
2019-05-20T00:43:57.213Z,99.90
2019-05-20T00:46:23.795Z,99.90
2019-05-20T00:48:52.661Z,99.90
2019-05-20T00:51:19.246Z,99.90
2019-05-20T00:53:46.112Z,99.90
2019-05-20T00:56:14.877Z,99.90
2019-05-20T00:58:43.085Z,99.90
2019-05-20T01:01:11.252Z,99.90
2019-05-20T01:03:40.059Z,99.90
2019-05-20T01:06:06.641Z,99.90
2019-05-20T01:08:33.224Z,99.90
2019-05-20T01:11:02.260Z,99.90
2019-05-20T01:13:28.845Z,99.90
2019-05-20T01:15:55.522Z,99.90
2019-05-20T01:18:24.256Z,99.90
2019-05-20T01:20:50.871Z,99.90
2019-05-20T01:23:17.646Z,99.90
2019-05-20T01:25:46.322Z,99.90
2019-05-20T01:28:13.043Z,99.90
2019-05-20T01:30:39.708Z,99.90
2019-05-20T01:33:13.972Z,99.90
2019-05-20T01:35:36.964Z,99.90
2019-05-20T01:38:03.554Z,99.90
2019-05-20T01:40:33.491Z,99.90
2019-05-20T01:43:00.074Z,99.90
2019-05-20T01:45:26.694Z,99.90
2019-05-20T01:47:58.815Z,99.90
2019-05-20T01:50:25.398Z,99.90
2019-05-20T01:52:52.035Z,99.90
2019-05-20T01:55:20.816Z,99.90
2019-05-20T01:57:47.600Z,99.90
2019-05-20T02:00:14.402Z,99.90
2019-05-20T02:02:43.760Z,99.90
2019-05-20T02:05:10.363Z,99.90
2019-05-20T02:07:37.218Z,99.90
2019-05-20T02:10:05.810Z,99.90
2019-05-20T02:12:32.675Z,99.90
2019-05-20T02:14:59.266Z,99.90
2019-05-20T02:17:29.847Z,99.90
2019-05-20T02:19:56.426Z,99.90
2019-05-20T02:22:23.320Z,99.90
2019-05-20T02:24:51.878Z,99.90
2019-05-20T02:27:18.484Z,99.90
2019-05-20T02:29:45.063Z,99.90
2019-05-20T02:32:13.583Z,99.90
2019-05-20T02:34:40.166Z,99.90
2019-05-20T02:37:06.756Z,99.90
2019-05-20T02:39:35.557Z,99.90
2019-05-20T02:42:02.161Z,99.90
2019-05-20T02:44:28.797Z,99.90
2019-05-20T02:46:57.314Z,99.90
2019-05-20T02:49:23.918Z,99.90
2019-05-20T02:51:55.120Z,99.90
2019-05-20T02:54:25.509Z,99.90
2019-05-20T02:56:58.313Z,99.90
2019-05-20T02:59:27.618Z,99.90
2019-05-20T03:01:56.459Z,99.90
2019-05-20T03:04:24.779Z,99.90
2019-05-20T03:06:53.329Z,99.90
2019-05-20T03:09:22.993Z,99.90
2019-05-20T03:11:56.162Z,99.90
2019-05-20T03:14:22.485Z,99.90
2019-05-20T03:16:51.106Z,99.90
2019-05-20T03:19:17.757Z,99.90
2019-05-20T03:21:44.363Z,99.90
2019-05-20T03:24:13.322Z,99.90
2019-05-20T03:26:39.912Z,99.90
2019-05-20T03:29:06.780Z,99.90
2019-05-20T03:31:36.519Z,99.90
2019-05-20T03:34:03.258Z,99.90
2019-05-20T03:36:30.126Z,99.90
2019-05-20T03:38:58.584Z,99.90
2019-05-20T03:41:25.446Z,99.90
2019-05-20T03:43:52.089Z,99.90
2019-05-20T03:46:20.900Z,99.90
2019-05-20T03:48:47.581Z,99.90
2019-05-20T03:51:15.283Z,99.90
2019-05-20T03:53:44.802Z,99.90
2019-05-20T03:56:12.389Z,99.90
2019-05-20T03:58:40.266Z,99.90
2019-05-20T04:01:08.860Z,99.90
2019-05-20T04:03:35.722Z,99.90
2019-05-20T04:06:02.311Z,99.90
2019-05-20T04:08:31.685Z,99.90
2019-05-20T04:10:58.286Z,99.90
2019-05-20T04:13:24.874Z,99.90
2019-05-20T04:15:54.460Z,99.90
2019-05-20T04:18:21.323Z,99.90
2019-05-20T04:20:47.909Z,99.90
2019-05-20T04:23:17.288Z,99.90
2019-05-20T04:25:43.955Z,99.90
2019-05-20T04:28:10.770Z,99.90
2019-05-20T04:30:42.406Z,99.90
2019-05-20T04:33:10.288Z,99.90
2019-05-20T04:35:36.984Z,99.90
2019-05-20T04:38:06.216Z,99.90
2019-05-20T04:40:32.868Z,99.90
2019-05-20T04:42:59.455Z,99.90
2019-05-20T04:45:28.081Z,99.90
2019-05-20T04:47:54.661Z,99.90
2019-05-20T04:50:21.836Z,99.90
2019-05-20T04:52:51.367Z,99.90
2019-05-20T04:55:18.076Z,99.90
2019-05-20T04:57:44.669Z,99.90
2019-05-20T05:00:13.427Z,99.90
2019-05-20T05:02:43.403Z,99.90
2019-05-20T05:05:08.463Z,99.90
2019-05-20T05:07:37.281Z,99.90
2019-05-20T05:10:03.871Z,99.90
2019-05-20T05:12:30.729Z,99.90
2019-05-20T05:14:59.365Z,99.90
2019-05-20T05:17:26.464Z,99.90
2019-05-20T05:19:54.058Z,99.90
2019-05-20T05:22:24.790Z,99.90
2019-05-20T05:24:52.390Z,99.90
2019-05-20T05:27:19.268Z,99.90
2019-05-20T05:29:51.059Z,99.90
2019-05-20T05:32:17.751Z,99.90
2019-05-20T05:34:45.355Z,99.90
2019-05-20T05:37:13.898Z,99.90
2019-05-20T05:39:40.923Z,99.90
2019-05-20T05:42:07.533Z,99.90
2019-05-20T05:44:37.329Z,99.90
2019-05-20T05:47:03.915Z,99.90
2019-05-20T05:49:30.516Z,99.90
2019-05-20T05:51:59.572Z,99.90
2019-05-20T05:54:27.180Z,99.90
2019-05-20T05:56:54.805Z,99.90
2019-05-20T05:59:25.695Z,99.90
2019-05-20T06:01:53.321Z,99.90
2019-05-20T06:04:23.277Z,99.90
2019-05-20T06:06:51.711Z,99.90
2019-05-20T06:09:19.392Z,99.90
2019-05-20T06:11:46.251Z,99.90
2019-05-20T06:14:15.064Z,99.90
2019-05-20T06:16:41.960Z,99.90
2019-05-20T06:19:08.619Z,99.90
2019-05-20T06:21:37.321Z,99.90
2019-05-20T06:24:03.961Z,99.90
2019-05-20T06:26:30.553Z,99.90
2019-05-20T06:29:02.709Z,99.90
2019-05-20T06:31:28.223Z,99.90
2019-05-20T06:33:54.787Z,99.90
2019-05-20T06:36:27.016Z,99.90
2019-05-20T06:38:53.179Z,99.90
2019-05-20T06:41:19.832Z,99.90
2019-05-20T06:43:49.997Z,99.90
2019-05-20T06:46:16.588Z,99.90
2019-05-20T06:48:43.189Z,99.90
2019-05-20T06:51:11.854Z,99.90
2019-05-20T06:53:39.779Z,99.90
2019-05-20T06:56:06.388Z,99.90
2019-05-20T06:58:35.128Z,99.90
2019-05-20T07:01:01.985Z,99.90
2019-05-20T07:03:28.594Z,99.90
2019-05-20T07:05:56.993Z,99.90
2019-05-20T07:08:23.780Z,99.90
2019-05-20T07:10:50.358Z,99.90
2019-05-20T07:13:19.618Z,99.90
2019-05-20T07:15:46.445Z,99.90
2019-05-20T07:18:13.307Z,99.90
2019-05-20T07:20:42.176Z,99.90
2019-05-20T07:23:08.775Z,99.90
2019-05-20T07:25:35.402Z,99.90
2019-05-20T07:28:05.370Z,99.90
2019-05-20T07:30:32.001Z,99.90
2019-05-20T07:32:58.594Z,99.90
2019-05-20T07:35:30.846Z,99.90
2019-05-20T07:37:55.579Z,99.90
2019-05-20T07:40:22.228Z,99.90
2019-05-20T07:42:50.930Z,99.90
2019-05-20T07:45:17.600Z,99.90
2019-05-20T07:47:44.219Z,99.90
2019-05-20T07:50:14.124Z,99.90
2019-05-20T07:52:40.994Z,99.90
2019-05-20T07:55:07.608Z,99.90
2019-05-20T07:57:41.876Z,99.90
2019-05-20T08:00:08.504Z,99.90
2019-05-20T08:02:35.600Z,99.90
2019-05-20T08:05:05.864Z,99.90
2019-05-20T08:07:50.742Z,99.90
2019-05-20T08:10:01.403Z,99.90
2019-05-20T08:12:30.428Z,99.90
2019-05-20T08:14:57.061Z,99.90
2019-05-20T08:17:23.693Z,99.90
2019-05-20T08:19:56.579Z,99.90
2019-05-20T08:22:23.141Z,99.90
2019-05-20T08:24:50.005Z,99.90
2019-05-20T08:27:18.856Z,99.90
2019-05-20T08:29:45.462Z,99.90
2019-05-20T08:32:12.328Z,99.90
2019-05-20T08:34:40.975Z,99.90
2019-05-20T08:37:08.820Z,99.90
2019-05-20T08:39:35.401Z,99.90
2019-05-20T08:42:04.042Z,99.90
2019-05-20T08:44:30.726Z,99.90
2019-05-20T08:46:58.671Z,99.90
2019-05-20T08:49:27.275Z,99.90
2019-05-20T08:51:53.852Z,99.90
2019-05-20T08:54:20.746Z,99.90
2019-05-20T08:56:50.032Z,99.90
2019-05-20T08:59:16.639Z,99.90
2019-05-20T09:01:43.216Z,99.90
2019-05-20T09:04:11.815Z,99.90
2019-05-20T09:06:38.450Z,99.90
2019-05-20T09:09:05.142Z,99.60
2019-05-20T09:11:35.965Z,99.90
2019-05-20T09:14:02.872Z,99.90
2019-05-20T09:16:29.464Z,99.90
2019-05-20T09:18:58.255Z,99.90
2019-05-20T09:21:25.060Z,98.70
2019-05-20T09:23:51.769Z,99.90
2019-05-20T09:26:20.817Z,99.80
2019-05-20T09:28:47.690Z,98.20
2019-05-20T09:31:14.596Z,99.70
2019-05-20T09:33:44.440Z,97.70
2019-05-20T09:36:11.358Z,99.80
2019-05-20T09:38:38.140Z,98.20
2019-05-20T09:41:07.306Z,98.50
2019-05-20T09:43:33.802Z,99.50
2019-05-20T09:46:07.644Z,96.80
2019-05-20T09:48:30.922Z,97.00
2019-05-20T09:50:57.757Z,97.20
2019-05-20T09:53:24.930Z,96.70
2019-05-20T09:55:53.728Z,98.60
2019-05-20T09:58:20.265Z,98.10
2019-05-20T10:00:46.767Z,96.40
2019-05-20T10:03:15.266Z,95.10
2019-05-20T10:05:41.739Z,95.60
2019-05-20T10:08:08.264Z,95.20
2019-05-20T10:10:37.006Z,96.10
2019-05-20T10:13:03.649Z,95.70
2019-05-20T10:15:30.243Z,94.40
2019-05-20T10:17:59.505Z,95.30
2019-05-20T10:20:26.116Z,94.40
2019-05-20T10:22:53.296Z,95.10
2019-05-20T10:25:21.875Z,93.80
2019-05-20T10:27:48.390Z,93.80
2019-05-20T10:30:14.894Z,93.50
2019-05-20T10:32:43.462Z,93.60
2019-05-20T10:35:09.967Z,92.80
2019-05-20T10:37:36.489Z,93.90
2019-05-20T10:40:05.225Z,92.60
2019-05-20T10:42:31.742Z,92.00
2019-05-20T10:44:59.088Z,92.50
2019-05-20T10:47:27.779Z,95.10
2019-05-20T10:49:54.279Z,92.20
2019-05-20T10:52:20.847Z,92.20
2019-05-20T10:54:50.957Z,92.10
2019-05-20T10:57:17.467Z,92.10
2019-05-20T10:59:43.976Z,93.20
2019-05-20T11:02:12.779Z,91.70
2019-05-20T11:04:39.284Z,91.00
2019-05-20T11:07:05.802Z,90.10
2019-05-20T11:09:34.518Z,91.90
2019-05-20T11:12:01.024Z,91.50
2019-05-20T11:14:27.543Z,91.70
2019-05-20T11:16:56.326Z,92.60
2019-05-20T11:19:22.832Z,94.60
2019-05-20T11:21:49.342Z,94.10
2019-05-20T11:24:18.144Z,95.70
2019-05-20T11:26:44.650Z,97.40
2019-05-20T11:29:11.149Z,99.90
2019-05-20T11:31:39.825Z,99.90
2019-05-20T11:34:06.335Z,99.90
2019-05-20T11:36:32.838Z,99.90
2019-05-20T11:39:01.914Z,99.90
2019-05-20T11:41:52.172Z,98.50
2019-05-20T11:43:56.771Z,98.00
2019-05-20T11:46:25.618Z,96.60
2019-05-20T11:48:52.119Z,96.70
2019-05-20T11:51:18.639Z,96.20
2019-05-20T11:53:47.920Z,98.00
2019-05-20T11:56:14.431Z,98.70
2019-05-20T11:58:40.927Z,99.60
2019-05-20T12:01:10.529Z,97.50
2019-05-20T12:03:37.033Z,99.90
2019-05-20T12:06:04.140Z,98.00
2019-05-20T12:08:33.349Z,98.00
2019-05-20T12:10:59.840Z,98.10
2019-05-20T12:13:26.345Z,98.00
2019-05-20T12:15:55.187Z,95.60
2019-05-20T12:18:21.703Z,95.00
2019-05-20T12:20:48.231Z,95.00
2019-05-20T12:23:17.235Z,94.00
2019-05-20T12:25:43.756Z,95.10
2019-05-20T12:28:10.299Z,94.40
2019-05-20T12:30:39.124Z,93.40
2019-05-20T12:33:18.523Z,94.10
2019-05-20T12:35:34.610Z,93.70
2019-05-20T12:38:03.563Z,93.80
2019-05-20T12:40:31.133Z,93.00
2019-05-20T12:42:58.017Z,93.40
2019-05-20T12:45:27.901Z,93.20
2019-05-20T12:47:55.071Z,93.40
2019-05-20T12:50:21.942Z,92.30
2019-05-20T12:52:51.454Z,93.00
2019-05-20T12:55:18.325Z,92.80
2019-05-20T12:57:45.042Z,92.80
2019-05-20T13:00:17.472Z,93.30
2019-05-20T13:02:44.472Z,94.20
2019-05-20T13:05:11.063Z,94.40
2019-05-20T13:07:40.069Z,93.70
2019-05-20T13:10:26.010Z,94.80
2019-05-20T13:12:35.810Z,95.40
2019-05-20T13:15:05.617Z,95.90
2019-05-20T13:17:32.575Z,96.40
2019-05-20T13:19:59.180Z,96.40
2019-05-20T13:22:31.359Z,96.00
2019-05-20T13:24:58.043Z,96.90
2019-05-20T13:27:24.724Z,97.30
2019-05-20T13:29:57.724Z,95.80
2019-05-20T13:32:24.881Z,95.50
2019-05-20T13:34:51.737Z,95.30
2019-05-20T13:37:20.938Z,96.20
2019-05-20T13:39:47.786Z,96.00
2019-05-20T13:42:14.649Z,96.00
2019-05-20T13:44:45.574Z,95.70
2019-05-20T13:47:12.053Z,97.10
2019-05-20T13:49:38.556Z,98.90
2019-05-20T13:52:06.911Z,98.90
2019-05-20T13:54:33.410Z,99.90
2019-05-20T13:56:59.916Z,99.80
2019-05-20T14:01:59.931Z,96.50
2019-05-20T14:04:26.436Z,93.50
2019-05-20T14:06:53.207Z,95.30
2019-05-20T14:09:25.950Z,96.00
2019-05-20T14:11:52.414Z,97.20
2019-05-20T14:14:18.956Z,98.60
2019-05-20T14:16:47.356Z,99.90
2019-05-20T14:19:13.859Z,99.90
2019-05-20T14:21:40.586Z,99.90
2019-05-20T14:24:12.525Z,99.90
2019-05-20T14:26:39.429Z,99.90
2019-05-20T14:29:07.663Z,99.90
2019-05-20T14:31:36.114Z,99.90
2019-05-20T14:34:02.678Z,99.90
2019-05-20T14:36:39.247Z,99.90
2019-05-20T14:41:33.234Z,99.90
2019-05-20T14:44:00.059Z,99.90
2019-05-20T14:46:26.649Z,99.90
2019-05-20T14:48:55.098Z,99.90
2019-05-20T14:51:21.788Z,99.90
2019-05-20T14:53:48.387Z,99.90
2019-05-20T14:58:50.005Z,99.90
2019-05-20T15:01:16.846Z,99.90
2019-05-20T15:03:43.536Z,99.90
2019-05-20T15:08:48.280Z,99.90
2019-05-20T15:11:15.111Z,99.90
2019-05-20T15:13:43.192Z,99.90
2019-05-20T15:16:11.598Z,99.90
2019-05-20T15:18:38.487Z,99.90
2019-05-20T15:21:05.091Z,99.90
2019-05-20T15:26:06.127Z,99.90
2019-05-20T15:28:32.806Z,99.90
2019-05-20T15:30:59.424Z,99.90
2019-05-20T15:33:31.403Z,99.90
2019-05-20T15:35:58.051Z,99.90
2019-05-20T15:38:24.740Z,99.90
2019-05-20T15:40:53.181Z,99.90
2019-05-20T15:43:19.809Z,99.90
2019-05-20T15:45:46.441Z,99.90
2019-05-20T15:48:18.597Z,99.90
2019-05-20T15:50:45.469Z,99.90
2019-05-20T15:53:13.369Z,99.90
2019-05-20T15:55:42.410Z,99.90
2019-05-20T15:58:09.353Z,99.90
2019-05-20T16:00:36.042Z,99.90
2019-05-20T16:03:04.920Z,99.90
2019-05-20T16:05:31.525Z,99.90
2019-05-20T16:07:58.117Z,99.90
2019-05-20T16:10:30.046Z,99.90
2019-05-20T16:12:56.901Z,99.90
2019-05-20T16:15:23.768Z,99.90
2019-05-20T16:17:52.575Z,99.90
2019-05-20T16:20:19.417Z,99.90
2019-05-20T16:22:46.492Z,99.90
2019-05-20T16:25:15.486Z,99.90
2019-05-20T16:27:42.202Z,99.90
2019-05-20T16:30:08.810Z,99.90
2019-05-20T16:35:10.152Z,99.90
2019-05-20T16:37:36.729Z,99.90
2019-05-20T16:40:03.678Z,99.90
2019-05-20T16:42:32.453Z,99.90
2019-05-20T16:44:59.125Z,99.90
2019-05-20T16:47:26.104Z,99.90
2019-05-20T16:49:54.698Z,99.90
2019-05-20T16:52:21.268Z,99.90
2019-05-20T16:54:48.211Z,99.90
2019-05-20T16:59:52.377Z,99.90
2019-05-20T17:02:18.966Z,99.90
2019-05-20T17:04:45.569Z,99.90
2019-05-20T17:07:14.553Z,99.90
2019-05-20T17:09:41.321Z,99.90
2019-05-20T17:12:08.206Z,99.90
2019-05-20T17:19:42.113Z,99.90
2019-05-20T17:22:08.722Z,99.90
2019-05-20T17:24:35.542Z,99.90
2019-05-20T17:27:04.143Z,99.90
2019-05-20T17:29:31.059Z,99.90
2019-05-20T17:31:57.828Z,99.90
2019-05-20T17:34:27.325Z,99.90
2019-05-20T17:36:54.153Z,99.90
2019-05-20T17:39:20.748Z,99.90
2019-05-20T17:41:49.478Z,99.90
2019-05-20T17:44:16.069Z,99.90
2019-05-20T17:46:42.702Z,99.90
2019-05-20T17:49:11.537Z,99.90
2019-05-20T17:51:38.135Z,99.90
2019-05-20T17:54:04.729Z,99.90
2019-05-20T17:56:36.954Z,99.90
2019-05-20T17:59:03.542Z,99.90
2019-05-20T18:01:30.399Z,99.90
2019-05-20T18:04:00.974Z,99.90
2019-05-20T18:06:27.570Z,99.90
2019-05-20T18:08:54.300Z,99.90
2019-05-20T18:16:27.837Z,99.90
2019-05-20T18:18:54.716Z,99.90
2019-05-20T18:21:21.546Z,99.90
2019-05-20T18:23:54.135Z,99.90
2019-05-20T18:26:24.737Z,99.90
2019-05-20T18:28:52.537Z,99.90
2019-05-20T18:36:28.006Z,99.90
2019-05-20T18:38:54.879Z,99.90
2019-05-20T18:41:21.484Z,99.90
2019-05-20T18:43:53.781Z,99.90
2019-05-20T18:46:21.656Z,99.90
2019-05-20T18:48:48.255Z,99.90
2019-05-20T18:53:50.499Z,99.90
2019-05-20T18:56:17.418Z,99.90
2019-05-20T18:58:44.373Z,99.90
2019-05-20T19:03:46.667Z,99.90
2019-05-20T19:06:13.372Z,99.90
2019-05-20T19:08:39.987Z,99.90
2019-05-20T19:11:08.249Z,99.90
2019-05-20T19:13:34.791Z,99.90
2019-05-20T19:16:01.382Z,99.90
2019-05-20T19:18:30.685Z,99.90
2019-05-20T19:20:57.558Z,99.90
2019-05-20T19:23:24.178Z,99.90
2019-05-20T19:25:54.430Z,99.90
2019-05-20T19:28:21.301Z,99.90
2019-05-20T19:30:48.144Z,99.90
2019-05-20T19:33:16.722Z,99.90
2019-05-20T19:35:43.599Z,99.90
2019-05-20T19:38:10.765Z,99.90
2019-05-20T19:40:39.274Z,99.90
2019-05-20T19:43:06.383Z,99.90
2019-05-20T19:45:32.992Z,99.90
2019-05-20T19:48:02.647Z,99.90
2019-05-20T19:50:29.238Z,99.90
2019-05-20T19:52:55.833Z,99.90
2019-05-20T19:55:24.607Z,99.90
2019-05-20T19:57:53.433Z,99.90
2019-05-20T20:00:20.078Z,99.90
2019-05-20T20:02:48.784Z,99.90
2019-05-20T20:05:15.372Z,99.90
2019-05-20T20:07:41.958Z,99.90
2019-05-20T20:10:10.616Z,99.90
2019-05-20T20:12:37.207Z,99.90
2019-05-20T20:15:04.091Z,99.90
2019-05-20T20:17:32.725Z,99.90
2019-05-20T20:19:59.376Z,99.90
2019-05-20T20:22:26.245Z,99.90
2019-05-20T20:24:55.734Z,99.90
2019-05-20T20:27:22.647Z,99.90
2019-05-20T20:29:49.238Z,99.90
2019-05-20T20:32:36.821Z,99.90
2019-05-20T20:34:49.227Z,99.90
2019-05-20T20:37:15.836Z,99.90
2019-05-20T20:39:45.459Z,99.90
2019-05-20T20:42:12.240Z,99.90
2019-05-20T20:44:38.828Z,99.90
2019-05-20T20:47:07.744Z,99.90
2019-05-20T20:49:34.396Z,99.90
2019-05-20T20:52:01.113Z,99.90
2019-05-20T20:57:04.041Z,99.90
2019-05-20T20:59:30.645Z,99.90
2019-05-20T21:01:59.553Z,99.90
2019-05-20T21:04:26.440Z,99.90
2019-05-20T21:06:53.317Z,99.90
2019-05-20T21:09:23.908Z,99.90
2019-05-20T21:11:50.533Z,99.90
2019-05-20T21:14:17.126Z,99.90
2019-05-20T21:16:45.888Z,99.90
2019-05-20T21:19:12.485Z,99.90
2019-05-20T21:21:39.112Z,99.90
2019-05-20T21:24:07.820Z,99.90
2019-05-20T21:26:34.495Z,99.90
2019-05-20T21:29:01.268Z,99.90
2019-05-20T21:31:29.775Z,99.90
2019-05-20T21:33:56.361Z,99.90
2019-05-20T21:36:23.238Z,99.90
2019-05-20T21:39:05.999Z,99.90
2019-05-20T21:41:20.360Z,99.90
2019-05-20T21:43:47.156Z,99.90
2019-05-20T21:46:15.893Z,99.90
2019-05-20T21:48:42.475Z,99.90
2019-05-20T21:51:09.075Z,99.90
2019-05-20T21:53:38.089Z,99.90
2019-05-20T21:56:04.669Z,99.90
2019-05-20T21:58:31.371Z,99.90
2019-05-20T22:01:00.149Z,99.90
2019-05-20T22:03:26.744Z,99.90
2019-05-20T22:05:53.600Z,99.90
2019-05-20T22:08:25.400Z,99.90
2019-05-20T22:10:52.002Z,99.90
2019-05-20T22:13:18.587Z,99.90
2019-05-20T22:15:47.305Z,99.90
2019-05-20T22:18:13.902Z,99.90
2019-05-20T22:20:40.839Z,99.90
2019-05-20T22:23:09.449Z,99.90
2019-05-20T22:25:36.323Z,99.90
2019-05-20T22:28:03.184Z,99.90
2019-05-20T22:30:31.914Z,99.90
2019-05-20T22:32:58.518Z,99.90
2019-05-20T22:35:25.117Z,99.90
2019-05-20T22:37:54.020Z,99.90
2019-05-20T22:40:20.876Z,99.90
2019-05-20T22:42:47.496Z,99.90
2019-05-20T22:45:16.762Z,99.90
2019-05-20T22:47:43.356Z,99.90
2019-05-20T22:50:10.280Z,99.90
2019-05-20T22:52:45.337Z,99.90
2019-05-20T22:55:11.812Z,99.90
2019-05-20T22:57:38.401Z,99.90
2019-05-20T23:00:08.844Z,99.90
2019-05-20T23:02:35.765Z,99.90
2019-05-20T23:05:02.543Z,99.90
2019-05-20T23:07:31.878Z,99.90
2019-05-20T23:09:58.484Z,99.90
2019-05-20T23:12:25.075Z,99.90
2019-05-20T23:14:53.623Z,99.90
2019-05-20T23:17:20.216Z,99.90
2019-05-20T23:19:46.795Z,99.90
2019-05-20T23:24:46.951Z,99.90
2019-05-20T23:27:13.547Z,99.90
2019-05-20T23:29:40.205Z,99.90
2019-05-20T23:32:08.575Z,99.90
2019-05-20T23:34:35.159Z,99.90
2019-05-20T23:37:01.814Z,99.90
2019-05-20T23:39:29.689Z,99.90
2019-05-20T23:41:56.380Z,99.90
2019-05-20T23:44:23.135Z,99.90
2019-05-20T23:46:52.453Z,99.90
2019-05-20T23:49:19.105Z,99.90
2019-05-20T23:51:45.984Z,99.90
2019-05-20T23:54:14.987Z,99.90
2019-05-20T23:56:41.634Z,99.90
2019-05-20T23:59:08.235Z,99.90
